createdAt,value
2023-05-10T00:01:48.107Z,11.26
2023-05-10T00:04:28.109Z,11.20
2023-05-10T00:07:09.335Z,11.18
2023-05-10T00:09:36.025Z,11.28
2023-05-10T00:12:03.028Z,11.14
2023-05-10T00:14:31.867Z,11.23
2023-05-10T00:16:58.657Z,10.97
2023-05-10T00:19:25.398Z,10.98
2023-05-10T00:21:53.273Z,11.00
2023-05-10T00:24:20.248Z,10.93
2023-05-10T00:26:54.619Z,10.96
2023-05-10T00:29:21.269Z,11.13
2023-05-10T00:31:51.341Z,10.95
2023-05-10T00:34:18.256Z,11.07
2023-05-10T00:36:47.151Z,11.09
2023-05-10T00:39:16.993Z,11.11
2023-05-10T00:42:00.691Z,11.00
2023-05-10T00:44:29.935Z,11.09
2023-05-10T00:46:56.639Z,11.09
2023-05-10T00:49:25.215Z,11.03
2023-05-10T00:52:09.150Z,11.06
2023-05-10T00:54:39.119Z,10.77
2023-05-10T00:57:05.839Z,10.82
2023-05-10T00:59:33.285Z,10.74
2023-05-10T01:02:00.171Z,10.83
2023-05-10T01:04:26.988Z,11.01
2023-05-10T01:06:54.769Z,10.92
2023-05-10T01:09:36.099Z,10.94
2023-05-10T01:12:04.251Z,10.98
2023-05-10T01:14:44.410Z,10.93
2023-05-10T01:17:23.833Z,10.94
2023-05-10T01:19:53.071Z,10.76
2023-05-10T01:22:41.732Z,10.55
2023-05-10T01:25:26.640Z,10.60
2023-05-10T01:27:59.100Z,10.59
2023-05-10T01:30:42.359Z,10.63
2023-05-10T01:33:17.235Z,10.53
2023-05-10T01:36:12.971Z,10.62
2023-05-10T01:38:48.521Z,10.67
2023-05-10T01:41:25.081Z,10.67
2023-05-10T01:44:19.301Z,10.54
2023-05-10T01:46:54.116Z,10.45
2023-05-10T01:49:44.816Z,10.42
2023-05-10T01:52:21.975Z,10.47
2023-05-10T01:55:02.276Z,10.38
2023-05-10T01:57:35.120Z,10.25
2023-05-10T02:00:08.391Z,10.34
2023-05-10T02:02:43.430Z,10.33
2023-05-10T02:05:16.721Z,10.22
2023-05-10T02:08:07.319Z,10.11
2023-05-10T02:10:40.719Z,10.10
2023-05-10T02:13:09.403Z,10.01
2023-05-10T02:15:38.157Z,9.98
2023-05-10T02:18:07.125Z,9.98
2023-05-10T02:20:36.121Z,10.07
2023-05-10T02:23:04.445Z,9.88
2023-05-10T02:25:32.655Z,9.82
2023-05-10T02:28:11.801Z,9.97
2023-05-10T02:31:25.858Z,9.83
2023-05-10T02:33:58.295Z,9.69
2023-05-10T02:36:28.816Z,9.59
2023-05-10T02:39:02.814Z,9.65
2023-05-10T02:41:33.492Z,9.82
2023-05-10T02:44:03.806Z,9.69
2023-05-10T02:46:42.588Z,9.50
2023-05-10T02:49:09.568Z,9.58
2023-05-10T02:51:42.107Z,9.49
2023-05-10T02:54:13.765Z,9.39
2023-05-10T02:56:48.673Z,9.44
2023-05-10T02:59:15.582Z,9.54
2023-05-10T03:01:44.720Z,9.45
2023-05-10T03:04:11.837Z,9.41
2023-05-10T03:06:38.998Z,9.36
2023-05-10T03:09:13.325Z,9.16
2023-05-10T03:12:10.183Z,9.29
2023-05-10T03:14:48.995Z,9.38
2023-05-10T03:17:40.031Z,9.20
2023-05-10T03:20:17.556Z,9.22
2023-05-10T03:22:48.166Z,9.23
2023-05-10T03:25:17.677Z,9.22
2023-05-10T03:27:46.209Z,9.31
2023-05-10T03:30:14.077Z,9.22
2023-05-10T03:32:40.945Z,9.26
2023-05-10T03:35:09.650Z,9.13
2023-05-10T03:37:36.954Z,9.23
2023-05-10T03:40:04.675Z,9.23
2023-05-10T03:42:31.589Z,9.06
2023-05-10T03:44:58.255Z,9.25
2023-05-10T03:47:24.969Z,9.21
2023-05-10T03:49:51.657Z,9.16
2023-05-10T03:52:18.256Z,9.11
2023-05-10T03:54:44.918Z,9.16
2023-05-10T03:57:11.544Z,9.27
2023-05-10T03:59:38.178Z,9.20
2023-05-10T04:02:04.830Z,9.30
2023-05-10T04:04:31.463Z,9.29
2023-05-10T04:06:58.121Z,9.20
2023-05-10T04:09:25.081Z,9.15
2023-05-10T04:11:51.705Z,9.11
2023-05-10T04:14:18.456Z,9.29
2023-05-10T04:16:45.062Z,9.36
2023-05-10T04:19:11.987Z,9.43
2023-05-10T04:21:38.580Z,9.33
2023-05-10T04:24:05.354Z,9.55
2023-05-10T04:26:32.358Z,9.54
2023-05-10T04:28:58.962Z,9.64
2023-05-10T04:31:25.718Z,9.76
2023-05-10T04:33:52.527Z,9.62
2023-05-10T04:36:19.272Z,9.59
2023-05-10T04:38:45.881Z,9.54
2023-05-10T04:41:12.741Z,9.71
2023-05-10T04:43:39.741Z,9.88
2023-05-10T04:46:07.015Z,9.93
2023-05-10T04:48:33.812Z,10.07
2023-05-10T04:51:00.732Z,10.15
2023-05-10T04:53:27.376Z,10.20
2023-05-10T04:55:54.043Z,10.17
2023-05-10T04:58:20.673Z,10.34
2023-05-10T05:00:47.281Z,10.54
2023-05-10T05:03:14.113Z,10.58
2023-05-10T05:05:40.764Z,10.74
2023-05-10T05:08:07.347Z,10.87
2023-05-10T05:10:33.985Z,10.93
2023-05-10T05:13:00.812Z,11.17
2023-05-10T05:15:27.515Z,11.21
2023-05-10T05:17:54.714Z,11.39
2023-05-10T05:20:21.495Z,11.45
2023-05-10T05:22:48.122Z,11.59
2023-05-10T05:25:16.077Z,11.74
2023-05-10T05:27:42.781Z,11.77
2023-05-10T05:30:09.846Z,11.89
2023-05-10T05:32:36.525Z,12.03
2023-05-10T05:35:03.376Z,12.26
2023-05-10T05:37:30.126Z,12.36
2023-05-10T05:39:56.807Z,12.51
2023-05-10T05:42:23.636Z,12.68
2023-05-10T05:44:50.335Z,12.75
2023-05-10T05:47:17.018Z,12.89
2023-05-10T05:49:43.705Z,13.06
2023-05-10T05:52:10.266Z,13.24
2023-05-10T05:54:36.877Z,13.01
2023-05-10T05:57:03.708Z,13.29
2023-05-10T05:59:30.540Z,13.50
2023-05-10T06:01:57.111Z,13.61
2023-05-10T06:04:23.935Z,13.77
2023-05-10T06:06:50.577Z,13.94
2023-05-10T06:09:17.215Z,14.16
2023-05-10T06:11:43.998Z,14.22
2023-05-10T06:14:10.742Z,14.23
2023-05-10T06:16:37.530Z,14.37
2023-05-10T06:19:04.138Z,14.22
2023-05-10T06:21:31.201Z,14.23
2023-05-10T06:23:57.961Z,14.35
2023-05-10T06:26:24.627Z,14.79
2023-05-10T06:28:51.269Z,14.55
2023-05-10T06:31:18.196Z,14.72
2023-05-10T06:33:44.785Z,14.75
2023-05-10T06:36:11.393Z,14.66
2023-05-10T06:38:38.287Z,15.11
2023-05-10T06:41:04.901Z,15.42
2023-05-10T06:43:31.496Z,15.44
2023-05-10T06:45:58.578Z,15.27
2023-05-10T06:48:25.318Z,14.75
2023-05-10T06:50:51.988Z,15.45
2023-05-10T06:53:18.811Z,15.20
2023-05-10T06:55:45.405Z,15.79
2023-05-10T06:58:12.138Z,15.99
2023-05-10T07:00:41.695Z,15.91
2023-05-10T07:03:08.538Z,16.38
2023-05-10T07:05:35.600Z,16.66
2023-05-10T07:08:02.628Z,16.21
2023-05-10T07:10:29.387Z,16.37
2023-05-10T07:12:56.061Z,16.53
2023-05-10T07:15:22.992Z,16.62
2023-05-10T07:17:49.750Z,16.89
2023-05-10T07:20:16.666Z,16.67
2023-05-10T07:22:43.337Z,16.97
2023-05-10T07:25:10.165Z,16.87
2023-05-10T07:27:36.917Z,17.09
2023-05-10T07:30:03.696Z,17.23
2023-05-10T07:32:30.366Z,17.57
2023-05-10T07:34:57.067Z,17.73
2023-05-10T07:37:23.725Z,18.01
2023-05-10T07:39:50.321Z,18.05
2023-05-10T07:42:16.937Z,17.81
2023-05-10T07:44:44.316Z,17.65
2023-05-10T07:47:10.897Z,17.82
2023-05-10T07:49:37.498Z,18.11
2023-05-10T07:52:04.578Z,17.89
2023-05-10T07:54:31.168Z,17.82
2023-05-10T07:56:57.728Z,17.81
2023-05-10T07:59:24.346Z,18.28
2023-05-10T08:01:50.937Z,18.34
2023-05-10T08:04:17.641Z,17.89
2023-05-10T08:06:44.307Z,18.00
2023-05-10T08:09:11.911Z,18.14
2023-05-10T08:11:38.505Z,18.31
2023-05-10T08:14:05.213Z,18.65
2023-05-10T08:16:31.962Z,18.62
2023-05-10T08:18:58.613Z,18.79
2023-05-10T08:21:25.280Z,18.71
2023-05-10T08:23:51.964Z,18.60
2023-05-10T08:26:18.539Z,18.86
2023-05-10T08:28:45.229Z,18.83
2023-05-10T08:31:13.088Z,19.04
2023-05-10T08:33:41.438Z,18.74
2023-05-10T08:36:09.087Z,18.62
2023-05-10T08:38:35.789Z,19.41
2023-05-10T08:41:03.617Z,19.58
2023-05-10T08:43:31.408Z,19.10
2023-05-10T08:46:03.969Z,19.61
2023-05-10T08:48:31.872Z,19.95
2023-05-10T08:51:00.996Z,19.74
2023-05-10T08:53:30.049Z,19.87
2023-05-10T08:55:56.858Z,19.56
2023-05-10T08:58:23.664Z,19.82
2023-05-10T09:00:53.599Z,19.91
2023-05-10T09:03:20.375Z,20.07
2023-05-10T09:05:47.496Z,20.05
2023-05-10T09:08:17.308Z,19.97
2023-05-10T09:10:45.716Z,20.46
2023-05-10T09:13:12.939Z,20.76
2023-05-10T09:15:40.095Z,20.85
2023-05-10T09:18:06.932Z,20.66
2023-05-10T09:20:33.774Z,20.65
2023-05-10T09:23:00.570Z,20.80
2023-05-10T09:25:27.248Z,21.01
2023-05-10T09:27:54.102Z,20.93
2023-05-10T09:30:29.305Z,20.76
2023-05-10T09:32:57.025Z,21.12
2023-05-10T09:35:28.813Z,21.20
2023-05-10T09:37:58.507Z,21.21
2023-05-10T09:40:26.890Z,20.72
2023-05-10T09:43:03.491Z,21.12
2023-05-10T09:45:31.941Z,21.14
2023-05-10T09:48:00.165Z,20.63
2023-05-10T09:50:27.786Z,20.96
2023-05-10T09:53:00.149Z,21.11
2023-05-10T09:55:39.465Z,20.43
2023-05-10T09:58:11.118Z,21.38
2023-05-10T10:00:38.362Z,21.78
2023-05-10T10:03:05.651Z,21.99
2023-05-10T10:05:36.663Z,22.31
2023-05-10T10:08:06.595Z,21.92
2023-05-10T10:10:34.677Z,22.32
2023-05-10T10:13:02.732Z,21.93
2023-05-10T10:15:29.374Z,21.81
2023-05-10T10:17:55.994Z,22.02
2023-05-10T10:20:23.927Z,21.58
2023-05-10T10:22:50.779Z,22.34
2023-05-10T10:25:19.359Z,22.51
2023-05-10T10:27:58.060Z,22.33
2023-05-10T10:30:52.345Z,22.24
2023-05-10T10:33:58.135Z,22.48
2023-05-10T10:36:24.875Z,22.21
2023-05-10T10:39:03.855Z,22.30
2023-05-10T10:41:37.889Z,22.84
2023-05-10T10:44:26.109Z,22.97
2023-05-10T10:47:25.642Z,23.00
2023-05-10T10:50:04.550Z,23.20
2023-05-10T10:52:36.361Z,22.94
2023-05-10T10:55:11.494Z,23.16
2023-05-10T10:57:41.160Z,23.24
2023-05-10T11:00:21.060Z,23.34
2023-05-10T11:02:52.811Z,23.18
2023-05-10T11:05:28.473Z,22.75
2023-05-10T11:08:00.808Z,22.97
2023-05-10T11:10:30.975Z,22.65
2023-05-10T11:13:10.954Z,23.27
2023-05-10T11:15:49.957Z,23.48
2023-05-10T11:18:21.950Z,23.70
2023-05-10T11:21:14.434Z,23.78
2023-05-10T11:23:54.289Z,23.79
2023-05-10T11:26:24.770Z,23.82
2023-05-10T11:28:58.275Z,23.88
2023-05-10T11:31:27.806Z,23.94
2023-05-10T11:33:59.924Z,23.82
2023-05-10T11:36:29.442Z,24.10
2023-05-10T11:38:59.734Z,23.86
2023-05-10T11:41:30.748Z,23.85
2023-05-10T11:43:59.242Z,23.65
2023-05-10T11:46:30.162Z,23.97
2023-05-10T11:49:03.048Z,23.26
2023-05-10T11:51:35.892Z,23.03
2023-05-10T11:54:07.446Z,23.77
2023-05-10T11:56:34.340Z,23.68
2023-05-10T11:59:02.839Z,23.52
2023-05-10T12:01:29.975Z,24.11
2023-05-10T12:04:00.649Z,23.94
2023-05-10T12:06:29.979Z,23.61
2023-05-10T12:08:59.453Z,24.15
2023-05-10T12:11:28.316Z,24.19
2023-05-10T12:14:03.967Z,24.38
2023-05-10T12:16:31.237Z,24.51
2023-05-10T12:18:59.428Z,24.58
2023-05-10T12:21:26.845Z,24.29
2023-05-10T12:23:56.607Z,23.86
2023-05-10T12:26:24.241Z,24.10
2023-05-10T12:28:52.270Z,24.37
2023-05-10T12:31:19.628Z,24.37
2023-05-10T12:33:50.552Z,24.33
2023-05-10T12:39:07.399Z,24.51
2023-05-10T12:41:43.610Z,24.32
2023-05-10T12:44:10.517Z,24.30
2023-05-10T12:46:37.826Z,24.25
2023-05-10T12:49:09.360Z,24.62
2023-05-10T12:51:36.461Z,24.57
2023-05-10T12:54:04.265Z,24.29
2023-05-10T12:56:31.096Z,24.03
2023-05-10T12:58:57.699Z,24.40
2023-05-10T13:01:34.801Z,24.23
2023-05-10T13:04:01.627Z,23.74
2023-05-10T13:06:28.317Z,24.24
2023-05-10T13:08:54.960Z,24.06
2023-05-10T13:11:22.762Z,24.02
2023-05-10T13:13:50.720Z,23.93
2023-05-10T13:16:17.538Z,24.52
2023-05-10T13:18:44.384Z,25.03
2023-05-10T13:23:58.007Z,24.63
2023-05-10T13:26:25.148Z,24.26
2023-05-10T13:28:52.886Z,24.74
2023-05-10T13:31:20.014Z,24.99
2023-05-10T13:33:54.452Z,24.81
2023-05-10T13:36:21.587Z,25.31
2023-05-10T13:38:48.334Z,25.19
2023-05-10T13:41:15.265Z,25.29
2023-05-10T13:43:42.001Z,25.00
2023-05-10T13:46:08.835Z,24.59
2023-05-10T13:48:38.140Z,24.81
2023-05-10T13:51:05.530Z,25.02
2023-05-10T13:53:32.246Z,25.08
2023-05-10T13:55:59.150Z,24.89
2023-05-10T13:58:25.769Z,24.45
2023-05-10T14:00:52.429Z,24.67
2023-05-10T14:03:19.130Z,24.64
2023-05-10T14:05:46.392Z,24.53
2023-05-10T14:08:14.243Z,24.70
2023-05-10T14:10:40.969Z,24.87
2023-05-10T14:13:07.671Z,24.76
2023-05-10T14:15:34.302Z,24.47
2023-05-10T14:18:01.546Z,24.01
2023-05-10T14:20:28.261Z,23.57
2023-05-10T14:22:54.826Z,23.49
2023-05-10T14:25:21.783Z,23.23
2023-05-10T14:27:48.857Z,23.68
2023-05-10T14:30:16.127Z,23.61
2023-05-10T14:32:43.045Z,23.58
2023-05-10T14:35:12.818Z,23.13
2023-05-10T14:37:40.196Z,23.55
2023-05-10T14:40:08.495Z,23.69
2023-05-10T14:42:42.712Z,23.45
2023-05-10T14:45:10.120Z,23.55
2023-05-10T14:47:42.983Z,23.36
2023-05-10T14:50:21.477Z,23.35
2023-05-10T14:53:00.602Z,23.40
2023-05-10T14:55:27.642Z,23.05
2023-05-10T14:58:05.870Z,23.11
2023-05-10T15:00:32.504Z,23.30
2023-05-10T15:03:10.421Z,23.39
2023-05-10T15:05:42.427Z,22.96
2023-05-10T15:08:10.645Z,23.05
2023-05-10T15:10:37.970Z,22.80
2023-05-10T15:13:05.375Z,22.76
2023-05-10T15:15:32.458Z,23.09
2023-05-10T15:17:59.316Z,23.09
2023-05-10T15:20:26.036Z,22.69
2023-05-10T15:22:52.798Z,22.49
2023-05-10T15:25:19.661Z,22.74
2023-05-10T15:27:46.468Z,22.93
2023-05-10T15:30:13.483Z,22.71
2023-05-10T15:32:41.226Z,22.21
2023-05-10T15:35:10.558Z,22.73
2023-05-10T15:37:42.468Z,23.03
2023-05-10T15:40:09.571Z,22.94
2023-05-10T15:42:36.765Z,23.11
2023-05-10T15:45:03.834Z,23.05
2023-05-10T15:47:31.561Z,23.45
2023-05-10T15:49:58.446Z,23.22
2023-05-10T15:52:25.221Z,23.27
2023-05-10T15:54:52.425Z,22.89
2023-05-10T15:57:42.724Z,23.15
2023-05-10T16:00:13.398Z,23.04
2023-05-10T16:02:41.484Z,22.55
2023-05-10T16:05:09.789Z,22.27
2023-05-10T16:07:36.954Z,21.97
2023-05-10T16:10:11.300Z,22.02
2023-05-10T16:12:38.536Z,21.24
2023-05-10T16:15:06.846Z,21.20
2023-05-10T16:17:33.727Z,21.32
2023-05-10T16:20:01.437Z,21.45
2023-05-10T16:22:29.225Z,21.20
2023-05-10T16:24:57.433Z,21.01
2023-05-10T16:27:24.471Z,21.43
2023-05-10T16:29:51.250Z,21.80
2023-05-10T16:32:18.193Z,21.64
2023-05-10T16:34:45.095Z,21.76
2023-05-10T16:37:11.978Z,21.88
2023-05-10T16:39:39.009Z,21.38
2023-05-10T16:42:06.353Z,21.44
2023-05-10T16:44:33.883Z,20.80
2023-05-10T16:47:00.818Z,20.46
2023-05-10T16:49:27.506Z,20.51
2023-05-10T16:51:54.777Z,20.73
2023-05-10T16:54:22.131Z,20.66
2023-05-10T16:56:49.052Z,20.45
2023-05-10T16:59:16.492Z,20.36
2023-05-10T17:01:43.641Z,20.25
2023-05-10T17:04:10.448Z,20.03
2023-05-10T17:06:37.765Z,19.80
2023-05-10T17:09:06.217Z,19.79
2023-05-10T17:11:34.423Z,19.47
2023-05-10T17:14:01.860Z,19.49
2023-05-10T17:16:29.904Z,19.37
2023-05-10T17:18:56.830Z,19.39
2023-05-10T17:21:23.974Z,19.24
2023-05-10T17:23:51.432Z,19.08
2023-05-10T17:26:18.322Z,19.17
2023-05-10T17:28:45.084Z,19.23
2023-05-10T17:31:12.249Z,19.11
2023-05-10T17:33:39.427Z,19.12
2023-05-10T17:36:06.533Z,18.93
2023-05-10T17:38:33.476Z,18.76
2023-05-10T17:41:00.460Z,18.64
2023-05-10T17:43:27.093Z,18.61
2023-05-10T17:45:53.821Z,18.52
2023-05-10T17:48:20.898Z,18.53
2023-05-10T17:50:50.573Z,18.41
2023-05-10T17:53:17.450Z,18.46
2023-05-10T17:55:44.184Z,18.33
2023-05-10T17:58:12.432Z,18.28
2023-05-10T18:00:39.657Z,18.23
2023-05-10T18:03:06.307Z,18.21
2023-05-10T18:05:37.506Z,18.18
2023-05-10T18:08:05.231Z,18.03
2023-05-10T18:10:32.334Z,17.93
2023-05-10T18:12:59.428Z,17.76
2023-05-10T18:15:27.872Z,17.69
2023-05-10T18:17:56.256Z,17.59
2023-05-10T18:20:23.464Z,17.62
2023-05-10T18:22:50.420Z,17.68
2023-05-10T18:25:17.524Z,17.60
2023-05-10T18:27:44.472Z,17.46
2023-05-10T18:30:12.632Z,17.46
2023-05-10T18:32:39.909Z,17.38
2023-05-10T18:35:08.683Z,17.26
2023-05-10T18:37:36.448Z,17.13
2023-05-10T18:40:05.121Z,17.02
2023-05-10T18:42:32.020Z,16.92
2023-05-10T18:44:58.752Z,16.81
2023-05-10T18:47:26.788Z,16.69
2023-05-10T18:49:53.629Z,16.58
2023-05-10T18:52:20.461Z,16.50
2023-05-10T18:54:47.161Z,16.40
2023-05-10T18:57:13.952Z,16.27
2023-05-10T18:59:41.068Z,16.19
2023-05-10T19:02:08.395Z,16.09
2023-05-10T19:04:35.216Z,15.95
2023-05-10T19:07:03.164Z,15.85
2023-05-10T19:09:29.858Z,15.78
2023-05-10T19:11:56.909Z,15.73
2023-05-10T19:14:25.458Z,15.72
2023-05-10T19:16:53.135Z,15.69
2023-05-10T19:19:20.594Z,15.61
2023-05-10T19:21:48.369Z,15.60
2023-05-10T19:24:15.150Z,15.59
2023-05-10T19:26:41.995Z,15.51
2023-05-10T19:29:09.480Z,15.52
2023-05-10T19:31:36.173Z,15.48
2023-05-10T19:34:04.203Z,15.46
2023-05-10T19:36:33.316Z,15.43
2023-05-10T19:39:00.122Z,15.45
2023-05-10T19:41:26.962Z,15.37
2023-05-10T19:43:54.009Z,15.38
2023-05-10T19:46:20.774Z,15.42
2023-05-10T19:48:48.686Z,15.42
2023-05-10T19:51:16.787Z,15.40
2023-05-10T19:53:45.113Z,15.37
2023-05-10T19:56:13.170Z,15.32
2023-05-10T19:58:40.013Z,15.26
2023-05-10T20:01:07.965Z,15.22
2023-05-10T20:03:36.013Z,15.16
2023-05-10T20:06:04.088Z,15.12
2023-05-10T20:08:31.527Z,15.06
2023-05-10T20:10:59.185Z,14.96
2023-05-10T20:13:26.331Z,14.97
2023-05-10T20:15:57.934Z,14.92
2023-05-10T20:18:24.956Z,14.90
2023-05-10T20:20:56.320Z,14.89
2023-05-10T20:23:23.426Z,14.90
2023-05-10T20:25:50.344Z,14.87
2023-05-10T20:28:23.074Z,14.87
2023-05-10T20:30:53.435Z,14.89
2023-05-10T20:33:20.835Z,14.90
2023-05-10T20:35:47.581Z,14.85
2023-05-10T20:38:14.445Z,14.85
2023-05-10T20:40:41.691Z,14.85
2023-05-10T20:43:08.441Z,14.84
2023-05-10T20:45:37.577Z,14.93
2023-05-10T20:48:05.260Z,14.91
2023-05-10T20:50:32.178Z,14.86
2023-05-10T20:53:00.662Z,14.85
2023-05-10T20:55:28.251Z,14.86
2023-05-10T20:57:55.152Z,14.86
2023-05-10T21:00:22.042Z,14.84
2023-05-10T21:02:48.900Z,14.84
2023-05-10T21:05:16.804Z,14.80
2023-05-10T21:07:43.459Z,14.86
2023-05-10T21:10:11.718Z,14.86
2023-05-10T21:12:38.768Z,14.86
2023-05-10T21:15:05.929Z,14.89
2023-05-10T21:17:33.333Z,14.89
2023-05-10T21:20:00.092Z,14.89
2023-05-10T21:22:26.924Z,14.89
2023-05-10T21:24:53.762Z,14.89
2023-05-10T21:27:20.624Z,14.89
2023-05-10T21:29:47.209Z,14.91
2023-05-10T21:32:14.985Z,14.92
2023-05-10T21:34:41.873Z,14.95
2023-05-10T21:37:08.509Z,14.93
2023-05-10T21:39:35.130Z,14.92
2023-05-10T21:42:01.791Z,14.93
2023-05-10T21:44:28.408Z,14.94
2023-05-10T21:46:56.087Z,14.93
2023-05-10T21:49:22.704Z,14.94
2023-05-10T21:51:49.389Z,14.91
2023-05-10T21:54:15.993Z,14.92
2023-05-10T21:56:42.592Z,14.93
2023-05-10T21:59:09.221Z,14.88
2023-05-10T22:01:35.926Z,14.85
2023-05-10T22:04:02.544Z,14.82
2023-05-10T22:06:29.157Z,14.79
2023-05-10T22:08:55.822Z,14.77
2023-05-10T22:11:23.248Z,14.76
2023-05-10T22:13:49.865Z,14.75
2023-05-10T22:16:16.485Z,14.72
2023-05-10T22:18:43.751Z,14.72
2023-05-10T22:21:10.583Z,14.72
2023-05-10T22:23:37.206Z,14.71
2023-05-10T22:26:04.347Z,14.67
2023-05-10T22:28:31.003Z,14.65
2023-05-10T22:30:57.610Z,14.65
2023-05-10T22:33:24.292Z,14.61
2023-05-10T22:35:50.907Z,14.57
2023-05-10T22:38:17.583Z,14.55
2023-05-10T22:40:44.188Z,14.54
2023-05-10T22:43:10.947Z,14.51
2023-05-10T22:45:37.634Z,14.47
2023-05-10T22:48:05.330Z,14.43
2023-05-10T22:50:32.047Z,14.38
2023-05-10T22:52:58.628Z,14.28
2023-05-10T22:55:25.296Z,14.21
2023-05-10T22:57:52.401Z,14.12
2023-05-10T23:00:19.688Z,14.08
2023-05-10T23:02:46.724Z,14.01
2023-05-10T23:05:13.757Z,13.91
2023-05-10T23:07:40.599Z,13.82
2023-05-10T23:10:07.730Z,13.71
2023-05-10T23:12:34.716Z,13.62
2023-05-10T23:15:01.401Z,13.55
2023-05-10T23:17:28.379Z,13.46
2023-05-10T23:19:55.036Z,13.38
2023-05-10T23:22:21.872Z,13.29
2023-05-10T23:24:48.450Z,13.22
2023-05-10T23:27:15.102Z,13.09
2023-05-10T23:29:41.742Z,13.03
2023-05-10T23:32:08.399Z,12.95
2023-05-10T23:34:35.048Z,12.88
2023-05-10T23:37:02.062Z,12.79
2023-05-10T23:39:28.667Z,12.72
2023-05-10T23:41:55.572Z,12.66
2023-05-10T23:44:22.171Z,12.60
2023-05-10T23:46:48.765Z,12.56
2023-05-10T23:49:15.378Z,12.48
2023-05-10T23:51:41.971Z,12.42
2023-05-10T23:54:08.766Z,12.35
2023-05-10T23:56:35.336Z,12.30
2023-05-10T23:59:01.954Z,12.24
